Aviation Digital Data Service (ADDS)

Output produced by METARs form (0606 UTC 28 September 2022)
found at http://www.aviationweather.gov/metar/data/
 
VTSP 280600Z 26016KT 9999 BKN020 30/25 Q1006 WS ALL RWY NOSIG
VTSP 280530Z 26014KT 9999 BKN020 30/24 Q1006 NOSIG
VTSP 280500Z 26017KT 9999 BKN020 30/24 Q1007 NOSIG
VTSP 280430Z 26016KT 9999 BKN020 31/25 Q1007 NOSIG
VTSP 280400Z 28012KT 9999 BKN020 29/25 Q1008 NOSIG
VTSP 280330Z 27014KT 9999 FEW018CB SCT020 30/24 Q1008 NOSIG
VTSP 280300Z 28012KT 9999 FEW018CB SCT020 30/25 Q1008 NOSIG
VTSP 280230Z 27012KT 9999 SCT020 29/25 Q1008 NOSIG
VTSP 280200Z 27013KT 9999 BKN020 28/24 Q1008 NOSIG
VTSP 280130Z 27012KT 9999 -RA BKN020 28/24 Q1008 NOSIG
VTSP 280100Z 28010KT 9999 SCT020 28/24 Q1007 NOSIG
VTSP 280030Z 27011KT 9999 SCT020 27/24 Q1007 NOSIG
VTSP 280000Z 28009KT 9999 SCT020 27/24 Q1006 NOSIG
VTSP 272330Z 26010KT 9999 FEW020 27/24 Q1006 NOSIG
VTSP 272300Z 28011KT 9999 FEW020 27/24 Q1006 NOSIG
VTSP 272230Z 25010KT 9999 -RA SCT020 26/24 Q1005 NOSIG
VTSP 272200Z 28011KT 9999 SCT020 27/24 Q1006 NOSIG
VTSP 272130Z 27012KT 9999 SCT020 27/24 Q1006 NOSIG
VTSP 272100Z 29009KT 9999 SCT020 27/24 Q1006 NOSIG
VTSP 272030Z 29010KT 9999 SCT020 27/24 Q1006 WS ALL RWY NOSIG
VTSP 272000Z 29012KT 9999 SCT020 27/24 Q1006 NOSIG
VTSP 271930Z 29010KT 9999 SCT020 27/24 Q1007 WS ALL RWY NOSIG
VTSP 271900Z 28011KT 9999 SCT020 27/24 Q1007 WS ALL RWY NOSIG
VTSP 271830Z 28010KT 9999 SCT020 27/24 Q1007 WS ALL RWY NOSIG
VTSP 271800Z 28011KT 9999 SCT020 27/24 Q1008 NOSIG
VTSP 271730Z 27012KT 9999 SCT020 BKN100 27/24 Q1008 NOSIG
VTSP 271700Z 28011KT 9999 SCT020 BKN100 27/24 Q1009 NOSIG
VTSP 271630Z 28010KT 9999 SCT020 BKN080 27/24 Q1009 NOSIG
VTSP 271600Z 28010KT 9999 SCT020 BKN080 27/24 Q1009 NOSIG
VTSP 271530Z 28009KT 9999 SCT020 BKN080 27/24 Q1009 NOSIG
VTSP 271500Z 29011KT 9999 SCT020 27/23 Q1009 NOSIG
VTSP 271430Z 28010KT 9999 FEW020 27/24 Q1009 NOSIG
VTSP 271400Z 28009KT 9999 FEW020 27/24 Q1009 WS ALL RWY NOSIG
VTSP 271330Z 29010KT 9999 SCT018 27/24 Q1008 NOSIG
VTSP 271300Z 29009KT 9999 SCT020 27/24 Q1008 WS ALL RWY NOSIG
VTSP 271230Z 28010KT 260V320 9999 SCT020 27/24 Q1008 NOSIG
VTSP 271200Z 28012KT 9999 SCT020 27/24 Q1007 WS ALL RWY NOSIG
VTSP 271130Z 29012KT 9999 SCT018 27/24 Q1007 WS ALL RWY NOSIG
VTSP 271100Z 28014KT 9999 -RA FEW016 BKN020 28/24 Q1006 WS ALL RWY NOSIG
VTSP 271030Z 27015KT 9999 SCT020 SCT060 28/24 Q1006 WS ALL RWY NOSIG
VTSP 271000Z 28015KT 9999 SCT020 SCT030 28/24 Q1006 WS ALL RWY NOSIG
VTSP 270930Z 27015KT 9999 SCT020 29/24 Q1006 NOSIG
VTSP 270900Z 27016KT 9999 FEW020 BKN025 29/25 Q1006 NOSIG
VTSP 270830Z 28013KT 9999 FEW018 BKN020 29/25 Q1006 NOSIG
VTSP 270800Z 28014KT 9999 FEW018 BKN020 30/25 Q1006 NOSIG
VTSP 270730Z 27016KT 9999 FEW018 SCT020 30/24 Q1006 WS ALL RWY NOSIG
VTSP 270700Z 27016KT 9999 FEW018 SCT020 31/25 Q1007 WS ALL RWY NOSIG
VTSP 270630Z 27016KT 9999 FEW018 SCT020 30/25 Q1007 NOSIG
VTSP 270600Z 28014KT 9999 FEW018CB SCT020 BKN060 30/25 Q1007 NOSIG
VTSP 270530Z 27015KT 9999 FEW018CB SCT020 BKN060 30/25 Q1008 NOSIG
TAF VTSP 280500Z 2806/2912 26014KT 9999 SCT020 
     TEMPO 2806/2814 28015G25KT 3000 TSRA FEW018CB SCT020 BKN100 
     TEMPO 2820/2902 28015G25KT 3000 TSRA FEW018CB SCT020 BKN100